sensor_id;sensor_type;location;lat;lon;timestamp;P1;durP1;ratioP1;P2;durP2;ratioP2
70832;SDS011;58452;59.418;17.962;2022-10-16T00:00:15;25.80;;;19.88;;
70832;SDS011;58452;59.418;17.962;2022-10-16T00:02:40;25.60;;;17.65;;
70832;SDS011;58452;59.418;17.962;2022-10-16T00:05:06;31.27;;;19.48;;
70832;SDS011;58452;59.418;17.962;2022-10-16T00:07:31;22.98;;;17.23;;
70832;SDS011;58452;59.418;17.962;2022-10-16T00:09:57;27.17;;;18.98;;
70832;SDS011;58452;59.418;17.962;2022-10-16T00:12:22;26.42;;;17.20;;
70832;SDS011;58452;59.418;17.962;2022-10-16T00:14:47;30.10;;;18.55;;
70832;SDS011;58452;59.418;17.962;2022-10-16T00:17:13;20.75;;;16.58;;
70832;SDS011;58452;59.418;17.962;2022-10-16T00:19:38;22.27;;;15.38;;
70832;SDS011;58452;59.418;17.962;2022-10-16T00:22:03;23.65;;;16.05;;
70832;SDS011;58452;59.418;17.962;2022-10-16T00:24:29;22.58;;;16.35;;
70832;SDS011;58452;59.418;17.962;2022-10-16T00:26:54;21.83;;;16.35;;
70832;SDS011;58452;59.418;17.962;2022-10-16T00:29:20;19.35;;;13.15;;
70832;SDS011;58452;59.418;17.962;2022-10-16T00:31:45;19.35;;;14.77;;
70832;SDS011;58452;59.418;17.962;2022-10-16T00:34:10;17.60;;;14.50;;
70832;SDS011;58452;59.418;17.962;2022-10-16T00:36:36;20.65;;;15.18;;
70832;SDS011;58452;59.418;17.962;2022-10-16T00:39:02;18.17;;;12.38;;
70832;SDS011;58452;59.418;17.962;2022-10-16T00:41:28;21.27;;;15.23;;
70832;SDS011;58452;59.418;17.962;2022-10-16T00:43:57;21.30;;;15.60;;
70832;SDS011;58452;59.418;17.962;2022-10-16T00:51:34;16.07;;;13.73;;
70832;SDS011;58452;59.418;17.962;2022-10-16T00:54:09;16.00;;;12.93;;
70832;SDS011;58452;59.418;17.962;2022-10-16T00:56:38;19.20;;;14.30;;
70832;SDS011;58452;59.418;17.962;2022-10-16T00:59:05;17.95;;;13.02;;
70832;SDS011;58452;59.418;17.962;2022-10-16T01:01:35;15.82;;;11.98;;
70832;SDS011;58452;59.418;17.962;2022-10-16T01:04:00;17.35;;;12.68;;
70832;SDS011;58452;59.418;17.962;2022-10-16T01:06:37;18.13;;;13.90;;
70832;SDS011;58452;59.418;17.962;2022-10-16T01:09:17;15.75;;;13.07;;
70832;SDS011;58452;59.418;17.962;2022-10-16T01:17:41;18.10;;;12.90;;
70832;SDS011;58452;59.418;17.962;2022-10-16T01:20:27;19.30;;;14.30;;
70832;SDS011;58452;59.418;17.962;2022-10-16T01:28:17;19.58;;;14.40;;
70832;SDS011;58452;59.418;17.962;2022-10-16T01:30:45;19.77;;;14.30;;
70832;SDS011;58452;59.418;17.962;2022-10-16T01:35:48;16.13;;;13.85;;
70832;SDS011;58452;59.418;17.962;2022-10-16T01:38:23;19.58;;;14.80;;
70832;SDS011;58452;59.418;17.962;2022-10-16T01:40:58;23.08;;;15.32;;
70832;SDS011;58452;59.418;17.962;2022-10-16T01:43:28;22.58;;;16.25;;
70832;SDS011;58452;59.418;17.962;2022-10-16T01:45:58;20.55;;;15.55;;
70832;SDS011;58452;59.418;17.962;2022-10-16T01:48:25;22.42;;;15.75;;
70832;SDS011;58452;59.418;17.962;2022-10-16T01:50:57;24.70;;;17.10;;
70832;SDS011;58452;59.418;17.962;2022-10-16T01:53:28;18.90;;;15.75;;
70832;SDS011;58452;59.418;17.962;2022-10-16T01:55:55;22.23;;;15.45;;
70832;SDS011;58452;59.418;17.962;2022-10-16T01:58:20;24.17;;;15.75;;
70832;SDS011;58452;59.418;17.962;2022-10-16T02:00:49;20.90;;;15.73;;
70832;SDS011;58452;59.418;17.962;2022-10-16T02:03:17;23.13;;;16.23;;
70832;SDS011;58452;59.418;17.962;2022-10-16T02:05:46;20.55;;;15.38;;
70832;SDS011;58452;59.418;17.962;2022-10-16T02:08:16;21.58;;;15.95;;
70832;SDS011;58452;59.418;17.962;2022-10-16T02:10:41;20.35;;;14.60;;
70832;SDS011;58452;59.418;17.962;2022-10-16T02:15:41;19.75;;;14.23;;
70832;SDS011;58452;59.418;17.962;2022-10-16T02:18:07;19.25;;;14.68;;
70832;SDS011;58452;59.418;17.962;2022-10-16T02:20:55;20.48;;;14.90;;
70832;SDS011;58452;59.418;17.962;2022-10-16T02:23:51;19.20;;;14.10;;
70832;SDS011;58452;59.418;17.962;2022-10-16T02:26:15;16.05;;;12.60;;
70832;SDS011;58452;59.418;17.962;2022-10-16T02:28:46;15.02;;;12.35;;
70832;SDS011;58452;59.418;17.962;2022-10-16T02:31:18;23.15;;;14.10;;
70832;SDS011;58452;59.418;17.962;2022-10-16T02:33:51;17.30;;;13.63;;
70832;SDS011;58452;59.418;17.962;2022-10-16T02:36:19;16.63;;;14.48;;
70832;SDS011;58452;59.418;17.962;2022-10-16T02:38:44;16.95;;;13.23;;
70832;SDS011;58452;59.418;17.962;2022-10-16T02:41:10;16.58;;;12.38;;
70832;SDS011;58452;59.418;17.962;2022-10-16T02:43:36;15.70;;;12.10;;
70832;SDS011;58452;59.418;17.962;2022-10-16T02:46:04;17.40;;;12.57;;
70832;SDS011;58452;59.418;17.962;2022-10-16T02:48:30;15.32;;;11.73;;
70832;SDS011;58452;59.418;17.962;2022-10-16T02:50:55;16.05;;;12.45;;
70832;SDS011;58452;59.418;17.962;2022-10-16T02:53:22;13.95;;;11.48;;
70832;SDS011;58452;59.418;17.962;2022-10-16T02:55:47;11.82;;;10.57;;
70832;SDS011;58452;59.418;17.962;2022-10-16T02:58:12;16.35;;;11.45;;
70832;SDS011;58452;59.418;17.962;2022-10-16T03:00:38;14.10;;;11.10;;
70832;SDS011;58452;59.418;17.962;2022-10-16T03:03:03;15.40;;;11.13;;
70832;SDS011;58452;59.418;17.962;2022-10-16T03:05:29;13.90;;;10.30;;
70832;SDS011;58452;59.418;17.962;2022-10-16T03:07:54;14.18;;;10.73;;
70832;SDS011;58452;59.418;17.962;2022-10-16T03:10:19;18.48;;;12.23;;
70832;SDS011;58452;59.418;17.962;2022-10-16T03:12:45;18.00;;;12.23;;
70832;SDS011;58452;59.418;17.962;2022-10-16T03:15:10;15.13;;;11.50;;
70832;SDS011;58452;59.418;17.962;2022-10-16T03:17:35;15.32;;;12.30;;
70832;SDS011;58452;59.418;17.962;2022-10-16T03:20:01;20.27;;;12.93;;
70832;SDS011;58452;59.418;17.962;2022-10-16T03:22:27;18.35;;;12.10;;
70832;SDS011;58452;59.418;17.962;2022-10-16T03:24:53;17.77;;;12.80;;
70832;SDS011;58452;59.418;17.962;2022-10-16T03:27:19;16.48;;;12.45;;
70832;SDS011;58452;59.418;17.962;2022-10-16T03:29:44;16.42;;;12.50;;
70832;SDS011;58452;59.418;17.962;2022-10-16T03:32:09;15.10;;;13.18;;
70832;SDS011;58452;59.418;17.962;2022-10-16T03:34:35;14.27;;;10.90;;
70832;SDS011;58452;59.418;17.962;2022-10-16T03:37:00;18.67;;;12.48;;
70832;SDS011;58452;59.418;17.962;2022-10-16T03:39:26;17.02;;;11.65;;
70832;SDS011;58452;59.418;17.962;2022-10-16T03:41:52;17.38;;;11.85;;
70832;SDS011;58452;59.418;17.962;2022-10-16T03:44:17;13.23;;;11.48;;
70832;SDS011;58452;59.418;17.962;2022-10-16T03:46:42;15.05;;;12.38;;
70832;SDS011;58452;59.418;17.962;2022-10-16T03:49:08;16.85;;;12.10;;
70832;SDS011;58452;59.418;17.962;2022-10-16T03:51:33;13.57;;;11.45;;
70832;SDS011;58452;59.418;17.962;2022-10-16T03:53:58;25.75;;;12.88;;
70832;SDS011;58452;59.418;17.962;2022-10-16T03:56:24;16.67;;;10.82;;
70832;SDS011;58452;59.418;17.962;2022-10-16T03:58:49;15.05;;;11.82;;
70832;SDS011;58452;59.418;17.962;2022-10-16T04:01:15;12.13;;;10.20;;
70832;SDS011;58452;59.418;17.962;2022-10-16T04:03:40;11.50;;;10.00;;
70832;SDS011;58452;59.418;17.962;2022-10-16T04:06:05;15.10;;;11.02;;
70832;SDS011;58452;59.418;17.962;2022-10-16T04:08:31;10.55;;;9.23;;
70832;SDS011;58452;59.418;17.962;2022-10-16T04:10:59;15.75;;;9.52;;
70832;SDS011;58452;59.418;17.962;2022-10-16T04:13:25;15.25;;;10.82;;
70832;SDS011;58452;59.418;17.962;2022-10-16T04:15:50;11.55;;;8.68;;
70832;SDS011;58452;59.418;17.962;2022-10-16T04:18:16;12.40;;;9.02;;
70832;SDS011;58452;59.418;17.962;2022-10-16T04:20:41;14.85;;;10.55;;
70832;SDS011;58452;59.418;17.962;2022-10-16T04:23:07;11.25;;;9.75;;
70832;SDS011;58452;59.418;17.962;2022-10-16T04:25:32;11.25;;;8.77;;
70832;SDS011;58452;59.418;17.962;2022-10-16T04:27:57;10.90;;;9.02;;
70832;SDS011;58452;59.418;17.962;2022-10-16T04:30:23;10.40;;;8.73;;
70832;SDS011;58452;59.418;17.962;2022-10-16T04:32:49;11.35;;;8.90;;
70832;SDS011;58452;59.418;17.962;2022-10-16T04:35:18;9.13;;;7.47;;
70832;SDS011;58452;59.418;17.962;2022-10-16T04:37:45;8.68;;;7.72;;
70832;SDS011;58452;59.418;17.962;2022-10-16T04:40:10;10.30;;;7.88;;
70832;SDS011;58452;59.418;17.962;2022-10-16T04:42:36;9.25;;;8.20;;
70832;SDS011;58452;59.418;17.962;2022-10-16T04:45:02;10.02;;;7.68;;
70832;SDS011;58452;59.418;17.962;2022-10-16T04:47:27;9.68;;;7.13;;
70832;SDS011;58452;59.418;17.962;2022-10-16T04:49:53;8.60;;;7.75;;
70832;SDS011;58452;59.418;17.962;2022-10-16T04:52:18;9.80;;;7.50;;
70832;SDS011;58452;59.418;17.962;2022-10-16T04:54:46;8.55;;;7.07;;
70832;SDS011;58452;59.418;17.962;2022-10-16T04:57:11;10.07;;;7.13;;
70832;SDS011;58452;59.418;17.962;2022-10-16T04:59:37;10.73;;;7.72;;
70832;SDS011;58452;59.418;17.962;2022-10-16T05:02:02;8.93;;;6.72;;
70832;SDS011;58452;59.418;17.962;2022-10-16T05:04:28;10.18;;;7.88;;
70832;SDS011;58452;59.418;17.962;2022-10-16T05:06:53;10.07;;;8.55;;
70832;SDS011;58452;59.418;17.962;2022-10-16T05:09:19;8.35;;;6.63;;
70832;SDS011;58452;59.418;17.962;2022-10-16T05:11:44;10.27;;;7.10;;
70832;SDS011;58452;59.418;17.962;2022-10-16T05:14:10;7.82;;;6.50;;
70832;SDS011;58452;59.418;17.962;2022-10-16T05:16:35;9.25;;;7.55;;
70832;SDS011;58452;59.418;17.962;2022-10-16T05:19:00;8.18;;;6.95;;
70832;SDS011;58452;59.418;17.962;2022-10-16T05:21:26;8.02;;;6.53;;
70832;SDS011;58452;59.418;17.962;2022-10-16T05:23:52;9.52;;;6.70;;
70832;SDS011;58452;59.418;17.962;2022-10-16T05:26:18;7.78;;;6.82;;
70832;SDS011;58452;59.418;17.962;2022-10-16T05:28:43;8.57;;;6.50;;
70832;SDS011;58452;59.418;17.962;2022-10-16T05:31:09;9.52;;;6.70;;
70832;SDS011;58452;59.418;17.962;2022-10-16T05:33:35;10.88;;;7.63;;
70832;SDS011;58452;59.418;17.962;2022-10-16T05:36:01;10.57;;;6.28;;
70832;SDS011;58452;59.418;17.962;2022-10-16T05:38:28;9.23;;;7.53;;
70832;SDS011;58452;59.418;17.962;2022-10-16T05:40:53;10.48;;;7.47;;
70832;SDS011;58452;59.418;17.962;2022-10-16T05:43:19;7.55;;;6.82;;
70832;SDS011;58452;59.418;17.962;2022-10-16T05:45:52;9.55;;;7.85;;
70832;SDS011;58452;59.418;17.962;2022-10-16T05:50:46;10.37;;;7.53;;
70832;SDS011;58452;59.418;17.962;2022-10-16T05:53:11;9.90;;;8.18;;
70832;SDS011;58452;59.418;17.962;2022-10-16T05:55:36;10.32;;;8.30;;
70832;SDS011;58452;59.418;17.962;2022-10-16T05:58:02;11.45;;;9.02;;
70832;SDS011;58452;59.418;17.962;2022-10-16T06:00:27;12.18;;;10.02;;
70832;SDS011;58452;59.418;17.962;2022-10-16T06:02:53;13.88;;;10.02;;
70832;SDS011;58452;59.418;17.962;2022-10-16T06:05:18;14.65;;;10.63;;
70832;SDS011;58452;59.418;17.962;2022-10-16T06:07:44;14.75;;;11.05;;
70832;SDS011;58452;59.418;17.962;2022-10-16T06:10:09;14.38;;;10.32;;
70832;SDS011;58452;59.418;17.962;2022-10-16T06:12:34;15.25;;;10.35;;
70832;SDS011;58452;59.418;17.962;2022-10-16T06:15:00;14.48;;;10.63;;
70832;SDS011;58452;59.418;17.962;2022-10-16T06:17:25;15.77;;;11.10;;
70832;SDS011;58452;59.418;17.962;2022-10-16T06:19:50;16.23;;;12.07;;
70832;SDS011;58452;59.418;17.962;2022-10-16T06:22:16;14.30;;;11.48;;
70832;SDS011;58452;59.418;17.962;2022-10-16T06:24:41;15.25;;;11.43;;
70832;SDS011;58452;59.418;17.962;2022-10-16T06:27:06;15.27;;;11.30;;
70832;SDS011;58452;59.418;17.962;2022-10-16T06:29:32;17.20;;;11.95;;
70832;SDS011;58452;59.418;17.962;2022-10-16T06:31:57;16.88;;;11.75;;
70832;SDS011;58452;59.418;17.962;2022-10-16T06:34:22;19.98;;;13.55;;
70832;SDS011;58452;59.418;17.962;2022-10-16T06:36:48;22.90;;;12.82;;
70832;SDS011;58452;59.418;17.962;2022-10-16T06:39:13;18.38;;;13.10;;
70832;SDS011;58452;59.418;17.962;2022-10-16T06:41:38;20.60;;;13.70;;
70832;SDS011;58452;59.418;17.962;2022-10-16T06:44:07;18.05;;;13.70;;
70832;SDS011;58452;59.418;17.962;2022-10-16T06:46:33;18.75;;;13.82;;
70832;SDS011;58452;59.418;17.962;2022-10-16T06:48:58;20.55;;;15.18;;
70832;SDS011;58452;59.418;17.962;2022-10-16T06:51:24;20.48;;;15.32;;
70832;SDS011;58452;59.418;17.962;2022-10-16T06:53:51;18.33;;;14.40;;
70832;SDS011;58452;59.418;17.962;2022-10-16T06:56:22;16.67;;;13.57;;
70832;SDS011;58452;59.418;17.962;2022-10-16T06:58:49;23.55;;;14.02;;
70832;SDS011;58452;59.418;17.962;2022-10-16T07:01:16;16.20;;;12.80;;
70832;SDS011;58452;59.418;17.962;2022-10-16T07:03:43;19.92;;;13.73;;
70832;SDS011;58452;59.418;17.962;2022-10-16T07:06:11;18.95;;;13.88;;
70832;SDS011;58452;59.418;17.962;2022-10-16T07:08:39;16.60;;;13.85;;
70832;SDS011;58452;59.418;17.962;2022-10-16T07:11:07;20.92;;;14.32;;
70832;SDS011;58452;59.418;17.962;2022-10-16T07:13:38;20.00;;;13.27;;
70832;SDS011;58452;59.418;17.962;2022-10-16T07:16:09;22.38;;;12.02;;
70832;SDS011;58452;59.418;17.962;2022-10-16T07:18:44;17.55;;;12.15;;
70832;SDS011;58452;59.418;17.962;2022-10-16T07:23:45;17.17;;;12.55;;
70832;SDS011;58452;59.418;17.962;2022-10-16T07:26:15;18.35;;;13.65;;
70832;SDS011;58452;59.418;17.962;2022-10-16T07:28:40;16.75;;;12.55;;
70832;SDS011;58452;59.418;17.962;2022-10-16T07:31:09;16.92;;;12.73;;
70832;SDS011;58452;59.418;17.962;2022-10-16T07:33:38;15.20;;;12.75;;
70832;SDS011;58452;59.418;17.962;2022-10-16T07:36:04;16.45;;;12.43;;
70832;SDS011;58452;59.418;17.962;2022-10-16T07:38:30;15.43;;;11.60;;
70832;SDS011;58452;59.418;17.962;2022-10-16T07:41:14;20.58;;;13.50;;
70832;SDS011;58452;59.418;17.962;2022-10-16T07:43:49;24.58;;;14.57;;
70832;SDS011;58452;59.418;17.962;2022-10-16T07:46:16;18.63;;;11.68;;
70832;SDS011;58452;59.418;17.962;2022-10-16T07:48:43;14.45;;;10.32;;
70832;SDS011;58452;59.418;17.962;2022-10-16T07:51:11;11.93;;;10.05;;
70832;SDS011;58452;59.418;17.962;2022-10-16T07:53:37;16.17;;;10.30;;
70832;SDS011;58452;59.418;17.962;2022-10-16T07:56:05;15.43;;;10.80;;
70832;SDS011;58452;59.418;17.962;2022-10-16T07:58:32;10.90;;;7.93;;
70832;SDS011;58452;59.418;17.962;2022-10-16T08:00:59;11.68;;;8.27;;
70832;SDS011;58452;59.418;17.962;2022-10-16T08:03:29;8.95;;;7.68;;
70832;SDS011;58452;59.418;17.962;2022-10-16T08:05:56;14.05;;;6.80;;
70832;SDS011;58452;59.418;17.962;2022-10-16T08:08:22;9.20;;;6.57;;
70832;SDS011;58452;59.418;17.962;2022-10-16T08:10:47;9.50;;;6.18;;
70832;SDS011;58452;59.418;17.962;2022-10-16T08:13:13;10.25;;;6.50;;
70832;SDS011;58452;59.418;17.962;2022-10-16T08:15:40;9.90;;;6.80;;
70832;SDS011;58452;59.418;17.962;2022-10-16T08:18:09;8.23;;;6.10;;
70832;SDS011;58452;59.418;17.962;2022-10-16T08:20:35;7.13;;;5.82;;
70832;SDS011;58452;59.418;17.962;2022-10-16T08:23:01;12.55;;;6.30;;
70832;SDS011;58452;59.418;17.962;2022-10-16T08:25:27;7.65;;;5.68;;
70832;SDS011;58452;59.418;17.962;2022-10-16T08:27:53;11.88;;;6.13;;
70832;SDS011;58452;59.418;17.962;2022-10-16T08:30:19;7.88;;;5.63;;
70832;SDS011;58452;59.418;17.962;2022-10-16T08:32:45;6.00;;;5.40;;
70832;SDS011;58452;59.418;17.962;2022-10-16T08:35:11;8.25;;;4.95;;
70832;SDS011;58452;59.418;17.962;2022-10-16T08:37:37;6.45;;;5.40;;
70832;SDS011;58452;59.418;17.962;2022-10-16T08:40:04;8.98;;;6.18;;
70832;SDS011;58452;59.418;17.962;2022-10-16T08:48:43;7.80;;;5.45;;
70832;SDS011;58452;59.418;17.962;2022-10-16T08:51:15;11.00;;;5.45;;
70832;SDS011;58452;59.418;17.962;2022-10-16T08:53:50;6.45;;;4.60;;
70832;SDS011;58452;59.418;17.962;2022-10-16T08:56:19;8.65;;;5.15;;
70832;SDS011;58452;59.418;17.962;2022-10-16T08:58:45;7.15;;;4.40;;
70832;SDS011;58452;59.418;17.962;2022-10-16T09:01:13;7.47;;;4.80;;
70832;SDS011;58452;59.418;17.962;2022-10-16T09:03:56;12.40;;;4.55;;
70832;SDS011;58452;59.418;17.962;2022-10-16T09:23:00;6.65;;;5.55;;
70832;SDS011;58452;59.418;17.962;2022-10-16T09:25:37;6.68;;;4.45;;
70832;SDS011;58452;59.418;17.962;2022-10-16T09:28:07;9.50;;;5.40;;
70832;SDS011;58452;59.418;17.962;2022-10-16T09:30:33;6.80;;;3.65;;
70832;SDS011;58452;59.418;17.962;2022-10-16T09:32:58;7.43;;;4.20;;
70832;SDS011;58452;59.418;17.962;2022-10-16T09:35:27;5.60;;;3.13;;
70832;SDS011;58452;59.418;17.962;2022-10-16T09:37:58;3.97;;;3.50;;
70832;SDS011;58452;59.418;17.962;2022-10-16T09:40:28;5.60;;;3.40;;
70832;SDS011;58452;59.418;17.962;2022-10-16T09:43:21;6.68;;;3.50;;
70832;SDS011;58452;59.418;17.962;2022-10-16T09:48:43;5.22;;;3.30;;
70832;SDS011;58452;59.418;17.962;2022-10-16T09:52:02;8.48;;;3.95;;
70832;SDS011;58452;59.418;17.962;2022-10-16T09:56:34;7.65;;;3.67;;
70832;SDS011;58452;59.418;17.962;2022-10-16T09:59:11;4.38;;;2.95;;
70832;SDS011;58452;59.418;17.962;2022-10-16T10:01:44;7.93;;;3.70;;
70832;SDS011;58452;59.418;17.962;2022-10-16T10:04:12;16.17;;;3.38;;
70832;SDS011;58452;59.418;17.962;2022-10-16T10:06:44;3.28;;;2.70;;
70832;SDS011;58452;59.418;17.962;2022-10-16T10:09:21;7.90;;;3.15;;
70832;SDS011;58452;59.418;17.962;2022-10-16T10:11:50;4.72;;;2.85;;
70832;SDS011;58452;59.418;17.962;2022-10-16T10:14:37;5.97;;;2.17;;
70832;SDS011;58452;59.418;17.962;2022-10-16T10:19:36;4.05;;;2.25;;
70832;SDS011;58452;59.418;17.962;2022-10-16T10:22:24;6.43;;;2.50;;
70832;SDS011;58452;59.418;17.962;2022-10-16T10:30:35;6.53;;;3.75;;
70832;SDS011;58452;59.418;17.962;2022-10-16T10:46:35;6.18;;;2.80;;
70832;SDS011;58452;59.418;17.962;2022-10-16T11:02:00;3.92;;;2.72;;
70832;SDS011;58452;59.418;17.962;2022-10-16T11:07:44;2.75;;;2.10;;
70832;SDS011;58452;59.418;17.962;2022-10-16T11:11:00;6.38;;;2.67;;
70832;SDS011;58452;59.418;17.962;2022-10-16T11:16:30;5.88;;;1.98;;
70832;SDS011;58452;59.418;17.962;2022-10-16T11:18:59;4.78;;;2.40;;
70832;SDS011;58452;59.418;17.962;2022-10-16T11:21:43;8.45;;;2.42;;
70832;SDS011;58452;59.418;17.962;2022-10-16T11:24:19;4.63;;;2.45;;
70832;SDS011;58452;59.418;17.962;2022-10-16T11:26:48;5.70;;;3.13;;
70832;SDS011;58452;59.418;17.962;2022-10-16T11:29:19;6.10;;;3.63;;
70832;SDS011;58452;59.418;17.962;2022-10-16T11:31:55;10.77;;;2.88;;
70832;SDS011;58452;59.418;17.962;2022-10-16T11:34:32;6.32;;;3.00;;
70832;SDS011;58452;59.418;17.962;2022-10-16T11:39:52;9.43;;;3.08;;
70832;SDS011;58452;59.418;17.962;2022-10-16T11:42:26;7.38;;;2.92;;
70832;SDS011;58452;59.418;17.962;2022-10-16T11:47:35;5.83;;;3.03;;
70832;SDS011;58452;59.418;17.962;2022-10-16T11:55:40;6.80;;;2.50;;
70832;SDS011;58452;59.418;17.962;2022-10-16T11:58:29;4.18;;;2.30;;
70832;SDS011;58452;59.418;17.962;2022-10-16T12:01:19;5.05;;;2.20;;
70832;SDS011;58452;59.418;17.962;2022-10-16T12:09:37;3.95;;;2.05;;
70832;SDS011;58452;59.418;17.962;2022-10-16T12:12:04;6.18;;;2.45;;
70832;SDS011;58452;59.418;17.962;2022-10-16T12:14:48;6.38;;;2.45;;
70832;SDS011;58452;59.418;17.962;2022-10-16T12:19:44;10.23;;;2.30;;
70832;SDS011;58452;59.418;17.962;2022-10-16T12:22:22;7.25;;;3.10;;
70832;SDS011;58452;59.418;17.962;2022-10-16T12:24:55;9.23;;;2.30;;
70832;SDS011;58452;59.418;17.962;2022-10-16T12:27:32;4.97;;;2.33;;
70832;SDS011;58452;59.418;17.962;2022-10-16T12:29:59;5.15;;;2.35;;
70832;SDS011;58452;59.418;17.962;2022-10-16T12:34:54;10.80;;;2.97;;
70832;SDS011;58452;59.418;17.962;2022-10-16T12:37:41;5.90;;;2.30;;
70832;SDS011;58452;59.418;17.962;2022-10-16T12:40:15;4.93;;;2.50;;
70832;SDS011;58452;59.418;17.962;2022-10-16T12:42:52;5.28;;;2.05;;
70832;SDS011;58452;59.418;17.962;2022-10-16T12:47:57;12.68;;;5.00;;
70832;SDS011;58452;59.418;17.962;2022-10-16T12:52:52;9.50;;;3.85;;
70832;SDS011;58452;59.418;17.962;2022-10-16T12:55:18;4.07;;;2.63;;
70832;SDS011;58452;59.418;17.962;2022-10-16T13:11:29;5.40;;;2.95;;
70832;SDS011;58452;59.418;17.962;2022-10-16T13:19:53;4.72;;;2.20;;
70832;SDS011;58452;59.418;17.962;2022-10-16T13:22:36;5.15;;;2.05;;
70832;SDS011;58452;59.418;17.962;2022-10-16T13:30:17;4.85;;;2.08;;
70832;SDS011;58452;59.418;17.962;2022-10-16T13:32:48;3.22;;;1.83;;
70832;SDS011;58452;59.418;17.962;2022-10-16T13:35:22;4.20;;;2.50;;
70832;SDS011;58452;59.418;17.962;2022-10-16T13:37:49;3.22;;;2.15;;
70832;SDS011;58452;59.418;17.962;2022-10-16T13:40:19;4.03;;;2.08;;
70832;SDS011;58452;59.418;17.962;2022-10-16T13:42:45;7.50;;;1.80;;
70832;SDS011;58452;59.418;17.962;2022-10-16T13:45:17;7.63;;;2.53;;
70832;SDS011;58452;59.418;17.962;2022-10-16T13:47:44;6.13;;;2.70;;
70832;SDS011;58452;59.418;17.962;2022-10-16T13:50:11;3.08;;;1.65;;
70832;SDS011;58452;59.418;17.962;2022-10-16T13:52:38;5.25;;;2.10;;
70832;SDS011;58452;59.418;17.962;2022-10-16T13:55:25;3.63;;;1.73;;
70832;SDS011;58452;59.418;17.962;2022-10-16T13:57:50;4.30;;;2.53;;
70832;SDS011;58452;59.418;17.962;2022-10-16T14:00:19;13.27;;;3.30;;
70832;SDS011;58452;59.418;17.962;2022-10-16T14:02:53;9.18;;;2.35;;
70832;SDS011;58452;59.418;17.962;2022-10-16T14:05:24;5.90;;;2.40;;
70832;SDS011;58452;59.418;17.962;2022-10-16T14:07:50;7.47;;;2.10;;
70832;SDS011;58452;59.418;17.962;2022-10-16T14:10:22;8.02;;;2.40;;
70832;SDS011;58452;59.418;17.962;2022-10-16T14:12:54;2.95;;;2.20;;
70832;SDS011;58452;59.418;17.962;2022-10-16T14:15:27;2.20;;;1.38;;
70832;SDS011;58452;59.418;17.962;2022-10-16T14:17:55;3.90;;;1.77;;
70832;SDS011;58452;59.418;17.962;2022-10-16T14:20:22;4.18;;;1.65;;
70832;SDS011;58452;59.418;17.962;2022-10-16T14:23:03;3.00;;;1.40;;
70832;SDS011;58452;59.418;17.962;2022-10-16T14:25:43;4.35;;;1.50;;
70832;SDS011;58452;59.418;17.962;2022-10-16T14:28:18;2.38;;;1.70;;
70832;SDS011;58452;59.418;17.962;2022-10-16T14:30:50;3.35;;;1.52;;
70832;SDS011;58452;59.418;17.962;2022-10-16T14:33:20;4.32;;;2.10;;
70832;SDS011;58452;59.418;17.962;2022-10-16T14:36:01;3.28;;;1.85;;
70832;SDS011;58452;59.418;17.962;2022-10-16T14:38:29;3.92;;;2.17;;
70832;SDS011;58452;59.418;17.962;2022-10-16T14:40:57;2.88;;;2.05;;
70832;SDS011;58452;59.418;17.962;2022-10-16T14:43:27;5.05;;;2.08;;
70832;SDS011;58452;59.418;17.962;2022-10-16T14:46:14;2.13;;;1.35;;
70832;SDS011;58452;59.418;17.962;2022-10-16T14:48:42;2.90;;;1.60;;
70832;SDS011;58452;59.418;17.962;2022-10-16T14:51:14;3.63;;;2.30;;
70832;SDS011;58452;59.418;17.962;2022-10-16T14:53:41;7.43;;;1.70;;
70832;SDS011;58452;59.418;17.962;2022-10-16T14:56:16;5.57;;;1.77;;
70832;SDS011;58452;59.418;17.962;2022-10-16T14:58:44;7.53;;;2.90;;
70832;SDS011;58452;59.418;17.962;2022-10-16T15:01:10;5.60;;;2.42;;
70832;SDS011;58452;59.418;17.962;2022-10-16T15:03:36;5.15;;;2.50;;
70832;SDS011;58452;59.418;17.962;2022-10-16T15:06:09;4.68;;;2.03;;
70832;SDS011;58452;59.418;17.962;2022-10-16T15:08:36;5.30;;;2.55;;
70832;SDS011;58452;59.418;17.962;2022-10-16T15:11:01;5.35;;;2.25;;
70832;SDS011;58452;59.418;17.962;2022-10-16T15:13:27;6.40;;;2.60;;
70832;SDS011;58452;59.418;17.962;2022-10-16T15:15:52;5.28;;;2.40;;
70832;SDS011;58452;59.418;17.962;2022-10-16T15:18:18;7.72;;;2.88;;
70832;SDS011;58452;59.418;17.962;2022-10-16T15:20:48;6.38;;;2.35;;
70832;SDS011;58452;59.418;17.962;2022-10-16T15:23:18;8.27;;;2.97;;
70832;SDS011;58452;59.418;17.962;2022-10-16T15:25:46;7.00;;;2.03;;
70832;SDS011;58452;59.418;17.962;2022-10-16T15:28:14;6.65;;;2.67;;
70832;SDS011;58452;59.418;17.962;2022-10-16T15:30:40;9.38;;;2.85;;
70832;SDS011;58452;59.418;17.962;2022-10-16T15:33:10;5.22;;;2.28;;
70832;SDS011;58452;59.418;17.962;2022-10-16T15:35:38;5.13;;;2.55;;
70832;SDS011;58452;59.418;17.962;2022-10-16T15:38:04;4.18;;;1.40;;
70832;SDS011;58452;59.418;17.962;2022-10-16T15:40:29;2.22;;;1.20;;
70832;SDS011;58452;59.418;17.962;2022-10-16T15:42:55;4.72;;;1.40;;
70832;SDS011;58452;59.418;17.962;2022-10-16T15:45:20;3.33;;;1.15;;
70832;SDS011;58452;59.418;17.962;2022-10-16T15:47:46;2.40;;;0.98;;
70832;SDS011;58452;59.418;17.962;2022-10-16T15:50:12;2.97;;;0.98;;
70832;SDS011;58452;59.418;17.962;2022-10-16T15:52:39;8.07;;;1.70;;
70832;SDS011;58452;59.418;17.962;2022-10-16T15:55:08;4.57;;;1.30;;
70832;SDS011;58452;59.418;17.962;2022-10-16T15:57:36;4.95;;;1.50;;
70832;SDS011;58452;59.418;17.962;2022-10-16T16:00:07;5.38;;;1.42;;
70832;SDS011;58452;59.418;17.962;2022-10-16T16:02:37;2.00;;;1.23;;
70832;SDS011;58452;59.418;17.962;2022-10-16T16:05:03;3.03;;;0.98;;
70832;SDS011;58452;59.418;17.962;2022-10-16T16:07:31;7.22;;;1.60;;
70832;SDS011;58452;59.418;17.962;2022-10-16T16:09:58;6.35;;;1.17;;
70832;SDS011;58452;59.418;17.962;2022-10-16T16:12:23;5.05;;;0.98;;
70832;SDS011;58452;59.418;17.962;2022-10-16T16:14:49;5.18;;;1.00;;
70832;SDS011;58452;59.418;17.962;2022-10-16T16:17:14;7.20;;;1.50;;
70832;SDS011;58452;59.418;17.962;2022-10-16T16:19:40;2.40;;;1.17;;
70832;SDS011;58452;59.418;17.962;2022-10-16T16:22:05;4.65;;;1.23;;
70832;SDS011;58452;59.418;17.962;2022-10-16T16:24:31;3.95;;;1.23;;
70832;SDS011;58452;59.418;17.962;2022-10-16T16:26:56;3.30;;;1.27;;
70832;SDS011;58452;59.418;17.962;2022-10-16T16:29:21;2.00;;;0.93;;
70832;SDS011;58452;59.418;17.962;2022-10-16T16:31:47;4.05;;;0.93;;
70832;SDS011;58452;59.418;17.962;2022-10-16T16:34:13;2.83;;;0.80;;
70832;SDS011;58452;59.418;17.962;2022-10-16T16:36:38;2.45;;;1.00;;
70832;SDS011;58452;59.418;17.962;2022-10-16T16:39:05;2.67;;;0.80;;
70832;SDS011;58452;59.418;17.962;2022-10-16T16:41:31;3.33;;;0.95;;
70832;SDS011;58452;59.418;17.962;2022-10-16T16:44:02;7.07;;;3.35;;
70832;SDS011;58452;59.418;17.962;2022-10-16T16:46:32;4.45;;;1.00;;
70832;SDS011;58452;59.418;17.962;2022-10-16T16:48:58;1.67;;;0.70;;
70832;SDS011;58452;59.418;17.962;2022-10-16T16:51:25;1.88;;;0.65;;
70832;SDS011;58452;59.418;17.962;2022-10-16T16:53:51;4.10;;;1.20;;
70832;SDS011;58452;59.418;17.962;2022-10-16T16:56:18;1.65;;;1.25;;
70832;SDS011;58452;59.418;17.962;2022-10-16T16:58:45;1.55;;;0.80;;